Time;durP1;ratioP1;P1;durP2;ratioP2;P2;SDS_P1;SDS_P2;PMS_P1;PMS_P2;Temp;Humidity;BMP_temperature;BMP_pressure;BME280_temperature;BME280_humidity;BME280_pressure;Samples;Min_cycle;Max_cycle;Signal;HPM_P1;HPM_P2
2022/02/05 00:01:39;;;;;;;1.48;0.98;;;1.50;99.90;;;;;;5095530;28;20043;-75
2022/02/05 00:04:10;;;;;;;0.80;0.80;;;1.50;99.90;;;;;;5096030;28;20095;-75
2022/02/05 00:06:39;;;;;;;0.70;0.70;;;1.50;99.90;;;;;;5095847;28;20048;-75
2022/02/05 00:14:35;;;;;;;1.15;0.70;;;1.50;99.90;;;;;;5095778;28;20027;-75
2022/02/05 00:20:23;;;;;;;0.70;0.70;;;1.50;99.90;;;;;;5095806;28;20073;-75
2022/02/05 00:39:29;;;;;;;1.65;1.15;;;1.50;99.90;;;;;;5095477;28;20059;-73
2022/02/05 00:41:51;;;;;;;1.88;1.27;;;1.50;99.90;;;;;;5094976;28;20147;-73
2022/02/05 00:44:16;;;;;;;2.25;1.25;;;1.50;99.90;;;;;;5095195;28;20020;-73
2022/02/05 00:46:43;;;;;;;1.27;1.17;;;1.50;99.90;;;;;;5095055;28;20035;-73
2022/02/05 00:49:09;;;;;;;2.80;1.30;;;1.50;99.90;;;;;;5095013;28;20027;-72
2022/02/05 00:51:41;;;;;;;1.20;1.10;;;1.50;99.90;;;;;;5094894;28;20391;-73
2022/02/05 00:54:12;;;;;;;3.45;1.40;;;1.60;99.90;;;;;;5095188;28;20030;-73
2022/02/05 00:59:22;;;;;;;1.00;1.00;;;1.60;99.90;;;;;;5095120;28;20101;-73
2022/02/05 01:01:49;;;;;;;2.78;1.17;;;1.60;99.90;;;;;;5094846;28;20525;-73
2022/02/05 01:04:15;;;;;;;2.65;1.10;;;1.60;99.90;;;;;;5094674;28;20016;-72
2022/02/05 01:06:42;;;;;;;1.38;1.10;;;1.60;99.90;;;;;;5094710;28;20100;-75
2022/02/05 01:09:12;;;;;;;1.20;1.10;;;1.60;99.90;;;;;;5094362;28;20052;-75
2022/02/05 01:11:38;;;;;;;2.13;1.10;;;1.60;99.90;;;;;;5094978;28;20023;-75
2022/02/05 01:14:07;;;;;;;1.10;1.00;;;1.60;99.90;;;;;;5094693;28;20056;-75
2022/02/05 01:19:04;;;;;;;0.80;0.80;;;1.60;99.90;;;;;;5094704;28;20016;-75
2022/02/05 01:21:38;;;;;;;1.25;1.10;;;1.60;99.90;;;;;;5094484;28;20467;-77
2022/02/05 01:24:07;;;;;;;1.05;0.95;;;1.70;99.90;;;;;;5094517;28;20024;-80
2022/02/05 01:29:07;;;;;;;1.10;1.00;;;1.70;99.90;;;;;;5094384;28;20059;-81
2022/02/05 01:31:45;;;;;;;1.50;0.90;;;1.70;99.90;;;;;;5094109;28;20024;-81
2022/02/05 01:34:21;;;;;;;2.22;1.00;;;1.70;99.90;;;;;;5094162;28;20032;-81
2022/02/05 01:53:10;;;;;;;0.95;0.85;;;1.70;99.90;;;;;;5094258;28;20028;-75
2022/02/05 02:12:16;;;;;;;1.25;1.00;;;1.80;99.90;;;;;;5093544;28;20043;-78
2022/02/05 02:20:36;;;;;;;1.02;0.90;;;1.80;99.90;;;;;;5092645;28;20026;-80
2022/02/05 02:59:57;;;;;;;0.90;0.90;;;2.00;99.90;;;;;;5092740;28;20471;-75
2022/02/05 03:02:25;;;;;;;0.90;0.90;;;2.00;99.90;;;;;;5092655;28;20054;-75
2022/02/05 03:38:31;;;;;;;1.20;1.05;;;1.70;99.90;;;;;;5500888;22;20419;-69
2022/02/05 03:40:56;;;;;;;1.00;0.90;;;1.80;99.90;;;;;;5071731;28;20059;-70
2022/02/05 03:43:22;;;;;;;1.17;0.95;;;1.80;99.90;;;;;;5071986;28;20028;-70
2022/02/05 03:45:48;;;;;;;1.27;1.15;;;1.70;99.90;;;;;;5070597;28;20031;-70
2022/02/05 03:48:13;;;;;;;1.40;1.02;;;1.70;99.90;;;;;;5071747;28;20506;-70
2022/02/05 03:50:39;;;;;;;1.13;1.02;;;1.70;99.90;;;;;;5070541;28;20151;-70
2022/02/05 03:53:08;;;;;;;1.05;1.05;;;1.70;99.90;;;;;;5071910;28;20025;-71
2022/02/05 03:55:35;;;;;;;1.10;1.00;;;1.80;99.90;;;;;;5071811;28;20027;-71
2022/02/05 03:58:01;;;;;;;1.42;1.38;;;1.80;99.90;;;;;;5071771;28;20021;-71
2022/02/05 04:00:27;;;;;;;1.13;1.13;;;1.90;99.90;;;;;;5072038;28;20024;-71
2022/02/05 04:02:52;;;;;;;1.40;1.30;;;1.90;99.90;;;;;;5071633;28;20028;-72
2022/02/05 04:05:18;;;;;;;4.60;1.10;;;1.90;99.90;;;;;;5070522;28;20383;-72
2022/02/05 04:07:48;;;;;;;1.70;1.10;;;1.80;99.90;;;;;;5071414;28;20035;-72
2022/02/05 04:10:20;;;;;;;1.23;1.00;;;1.80;99.90;;;;;;5070909;28;20097;-72
2022/02/05 04:18:14;;;;;;;0.80;0.80;;;1.60;99.90;;;;;;5071882;28;20218;-71
2022/02/05 04:20:40;;;;;;;0.90;0.90;;;1.60;99.90;;;;;;5071820;28;20129;-71
2022/02/05 04:23:07;;;;;;;1.02;0.90;;;1.60;99.90;;;;;;5071543;28;20029;-71
2022/02/05 04:25:32;;;;;;;0.90;0.90;;;1.60;99.90;;;;;;5071553;28;20146;-71
2022/02/05 04:27:58;;;;;;;0.98;0.80;;;1.60;99.90;;;;;;5071271;28;20115;-71
2022/02/05 04:30:24;;;;;;;1.02;1.02;;;1.60;99.90;;;;;;5071562;28;20472;-71
2022/02/05 04:32:50;;;;;;;1.60;1.00;;;1.50;99.90;;;;;;5071373;28;20108;-71
2022/02/05 04:35:17;;;;;;;0.90;0.90;;;1.50;99.90;;;;;;5071713;28;20032;-71
2022/02/05 04:37:43;;;;;;;1.50;1.02;;;1.50;99.90;;;;;;5071256;28;20053;-71
2022/02/05 04:42:50;;;;;;;0.88;0.88;;;1.50;99.90;;;;;;5071892;28;20360;-71
2022/02/05 05:04:21;;;;;;;2.55;1.05;;;1.50;99.90;;;;;;5058545;28;20526;-69
2022/02/05 05:09:31;;;;;;;1.55;1.00;;;1.50;99.90;;;;;;5074533;28;19908;-69
2022/02/05 05:20:09;;;;;;;1.50;1.13;;;1.40;99.90;;;;;;5074670;28;20035;-69
2022/02/05 05:22:35;;;;;;;1.33;0.90;;;1.40;99.90;;;;;;5074415;28;20097;-70
2022/02/05 05:25:01;;;;;;;1.30;0.80;;;1.40;99.90;;;;;;5074064;28;20059;-70
2022/02/05 05:27:27;;;;;;;1.35;1.23;;;1.40;99.90;;;;;;5074214;28;20036;-69
2022/02/05 05:29:53;;;;;;;2.45;1.20;;;1.30;99.90;;;;;;5074356;28;20121;-70
2022/02/05 05:32:19;;;;;;;0.95;0.95;;;1.30;99.90;;;;;;5074604;28;20029;-75
2022/02/05 05:34:45;;;;;;;1.10;1.00;;;1.30;99.90;;;;;;5074015;28;20486;-74
2022/02/05 05:37:11;;;;;;;1.13;1.00;;;1.20;99.90;;;;;;5073850;28;20460;-74
2022/02/05 05:39:39;;;;;;;1.50;1.02;;;1.70;99.90;;;;;;5074134;28;20051;-73
2022/02/05 05:42:09;;;;;;;1.23;1.10;;;4.10;99.90;;;;;;5074307;28;20095;-75
2022/02/05 05:47:20;;;;;;;0.93;0.93;;;3.40;99.90;;;;;;5062583;28;20031;-73
2022/02/05 05:52:12;;;;;;;1.02;0.93;;;2.50;99.90;;;;;;5064836;28;20450;-74
2022/02/05 05:54:37;;;;;;;2.67;1.08;;;2.30;99.90;;;;;;5062856;28;20647;-70
2022/02/05 05:57:03;;;;;;;1.60;0.90;;;2.00;99.90;;;;;;5065024;28;20025;-73
2022/02/05 05:59:29;;;;;;;1.17;0.80;;;2.00;99.90;;;;;;5062406;28;20096;-75
2022/02/05 06:01:55;;;;;;;0.98;0.98;;;1.90;99.90;;;;;;5064147;28;20112;-75
2022/02/05 06:04:20;;;;;;;2.13;1.20;;;1.70;99.90;;;;;;5062918;28;20363;-75
2022/02/05 06:06:46;;;;;;;1.60;1.40;;;1.60;99.90;;;;;;5063772;28;20035;-75
2022/02/05 06:09:12;;;;;;;1.80;1.08;;;1.60;99.90;;;;;;5062977;28;20395;-75
2022/02/05 06:11:38;;;;;;;1.25;1.15;;;1.50;99.90;;;;;;5059585;28;20020;-68
2022/02/05 06:14:04;;;;;;;1.13;1.10;;;1.50;99.90;;;;;;5063758;28;20356;-73
2022/02/05 06:16:32;;;;;;;1.15;1.08;;;1.40;99.90;;;;;;5062455;28;20063;-73
2022/02/05 06:18:58;;;;;;;1.83;1.17;;;1.40;99.90;;;;;;5061830;28;20025;-73
2022/02/05 06:21:24;;;;;;;1.98;1.10;;;1.30;99.90;;;;;;5061411;28;20032;-77
2022/02/05 06:23:51;;;;;;;1.17;1.08;;;1.30;99.90;;;;;;5053003;28;20082;-70
2022/02/05 06:26:17;;;;;;;1.45;1.20;;;1.30;99.90;;;;;;5053441;28;20037;-71
2022/02/05 06:28:43;;;;;;;1.20;1.10;;;1.40;99.90;;;;;;5052809;28;20061;-72
2022/02/05 06:31:09;;;;;;;1.33;1.25;;;1.40;99.90;;;;;;5053106;28;20382;-71
2022/02/05 06:33:35;;;;;;;3.85;1.70;;;1.40;99.90;;;;;;5053031;28;20025;-71
2022/02/05 06:36:00;;;;;;;4.30;2.63;;;1.40;99.90;;;;;;5053094;28;20024;-71
2022/02/05 06:38:26;;;;;;;4.28;1.52;;;1.40;99.90;;;;;;5052633;28;20243;-71
2022/02/05 06:40:53;;;;;;;5.90;2.78;;;1.40;99.90;;;;;;5052713;28;20028;-72
2022/02/05 06:43:19;;;;;;;3.20;2.38;;;1.30;99.90;;;;;;5052736;28;20017;-72
2022/02/05 06:45:44;;;;;;;7.20;4.97;;;1.30;99.90;;;;;;5052717;28;20021;-72
2022/02/05 06:48:10;;;;;;;5.32;3.50;;;1.40;99.90;;;;;;5052598;28;20040;-72
2022/02/05 06:50:37;;;;;;;2.08;1.60;;;1.40;99.90;;;;;;5052632;28;20028;-75
2022/02/05 06:53:03;;;;;;;2.10;1.40;;;1.40;99.90;;;;;;5051217;28;20029;-72
2022/02/05 06:55:28;;;;;;;1.42;1.10;;;1.30;99.90;;;;;;5052520;28;20017;-71
2022/02/05 06:57:54;;;;;;;1.30;1.20;;;1.30;99.90;;;;;;5052662;28;20032;-77
2022/02/05 07:00:20;;;;;;;2.00;1.10;;;1.30;99.90;;;;;;5052506;28;20450;-71
2022/02/05 07:02:46;;;;;;;6.30;1.40;;;1.40;99.90;;;;;;5052414;28;20108;-74
2022/02/05 07:05:12;;;;;;;5.43;3.40;;;2.50;99.90;;;;;;5052269;28;20025;-73
2022/02/05 07:07:40;;;;;;;5.35;2.30;;;2.60;99.90;;;;;;5052262;28;20055;-75
2022/02/05 07:10:07;;;;;;;2.05;1.77;;;2.30;99.90;;;;;;5052361;28;20377;-74
2022/02/05 07:12:40;;;;;;;2.13;1.50;;;2.10;99.90;;;;;;5052443;28;20036;-74
2022/02/05 07:15:14;;;;;;;1.40;1.30;;;1.90;99.90;;;;;;5052197;28;20479;-74
2022/02/05 07:18:02;;;;;;;2.50;1.30;;;1.80;99.90;;;;;;5052302;28;20025;-74
2022/02/05 07:23:54;;;;;;;1.30;1.20;;;2.30;99.90;;;;;;5060033;28;20505;-72
2022/02/05 07:31:17;;;;;;;2.28;1.60;;;2.30;99.90;;;;;;5071699;28;20104;-68
2022/02/05 07:33:43;;;;;;;1.73;1.40;;;2.10;99.90;;;;;;5071352;28;20118;-69
2022/02/05 07:36:11;;;;;;;4.07;1.60;;;1.90;99.90;;;;;;5070260;28;20525;-69
2022/02/05 07:38:37;;;;;;;4.07;2.25;;;1.80;99.90;;;;;;5071210;28;20454;-70
2022/02/05 07:41:02;;;;;;;1.80;1.70;;;1.70;99.90;;;;;;5056164;28;20032;-69
2022/02/05 07:43:34;;;;;;;2.70;1.80;;;1.60;99.90;;;;;;5051219;28;20520;-69
2022/02/05 07:46:02;;;;;;;2.72;1.92;;;1.60;99.90;;;;;;5058619;28;20028;-69
2022/02/05 07:48:27;;;;;;;2.85;1.92;;;1.50;99.90;;;;;;5071450;28;20050;-68
2022/02/05 07:50:53;;;;;;;3.05;1.90;;;1.50;99.90;;;;;;5071358;28;20511;-74
2022/02/05 07:53:19;;;;;;;2.83;1.73;;;1.50;99.90;;;;;;5067948;28;20469;-74
2022/02/05 07:55:44;;;;;;;3.72;2.00;;;2.40;99.90;;;;;;5071269;28;20025;-74
2022/02/05 07:58:10;;;;;;;1.80;1.65;;;3.20;99.90;;;;;;5071254;28;20033;-74
2022/02/05 08:00:36;;;;;;;2.72;1.70;;;3.80;99.90;;;;;;5068512;28;20067;-75
2022/02/05 08:03:01;;;;;;;4.22;1.70;;;4.30;99.90;;;;;;5071273;28;20128;-75
2022/02/05 08:05:27;;;;;;;3.85;1.70;;;4.60;99.90;;;;;;5071532;28;20416;-74
2022/02/05 08:07:53;;;;;;;2.25;1.83;;;4.90;99.90;;;;;;5071013;28;20732;-74
2022/02/05 08:10:25;;;;;;;2.38;1.65;;;5.20;99.90;;;;;;5071103;28;20052;-74
2022/02/05 08:12:55;;;;;;;4.38;2.08;;;5.30;99.90;;;;;;5071077;28;21426;-74
2022/02/05 08:15:23;;;;;;;3.58;1.50;;;5.40;99.90;;;;;;5067959;28;20059;-74
2022/02/05 08:17:50;;;;;;;3.28;1.70;;;5.50;99.90;;;;;;5071703;28;20514;-74
2022/02/05 08:20:16;;;;;;;3.13;1.65;;;5.60;99.90;;;;;;5073812;28;20048;-75
2022/02/05 08:22:42;;;;;;;3.72;1.80;;;5.70;99.90;;;;;;5075169;28;20476;-74
2022/02/05 08:25:08;;;;;;;1.95;1.63;;;5.80;99.90;;;;;;5075157;28;20355;-74
2022/02/05 08:27:35;;;;;;;2.75;1.75;;;5.90;99.90;;;;;;5075101;28;20036;-75
2022/02/05 08:30:06;;;;;;;2.53;1.40;;;6.00;99.90;;;;;;5074949;28;20056;-76
2022/02/05 08:32:32;;;;;;;2.08;1.45;;;6.00;99.90;;;;;;5074864;28;20033;-74
2022/02/05 08:35:00;;;;;;;2.35;1.60;;;6.10;99.90;;;;;;5063341;28;20017;-75
2022/02/05 08:37:30;;;;;;;2.60;1.60;;;6.10;99.90;;;;;;5054983;28;21119;-74
2022/02/05 08:39:56;;;;;;;3.90;1.90;;;6.00;99.90;;;;;;5055191;28;20037;-74
2022/02/05 08:42:22;;;;;;;2.33;1.90;;;5.80;99.90;;;;;;5055186;28;20124;-76
2022/02/05 08:44:48;;;;;;;4.05;2.13;;;5.80;99.90;;;;;;5054987;28;20148;-72
2022/02/05 08:47:13;;;;;;;128.27;68.25;;;5.70;99.90;;;;;;5054682;28;20036;-72
2022/02/05 08:49:39;;;;;;;10.48;5.75;;;5.10;99.90;;;;;;5054860;28;20107;-72
2022/02/05 08:52:08;;;;;;;4.13;2.67;;;4.30;99.90;;;;;;5053485;28;20045;-73
2022/02/05 08:54:35;;;;;;;9.00;6.25;;;3.60;99.90;;;;;;5054624;28;20031;-72
2022/02/05 08:57:02;;;;;;;7.78;5.60;;;3.20;99.90;;;;;;5054827;28;20150;-72
2022/02/05 08:59:33;;;;;;;6.85;4.50;;;2.90;99.90;;;;;;5054705;28;20056;-73
2022/02/05 09:02:07;;;;;;;5.32;4.90;;;2.70;99.90;;;;;;5062494;28;20036;-72
2022/02/05 09:07:01;;;;;;;4.45;3.47;;;2.40;99.90;;;;;;5074702;28;20045;-75
2022/02/05 09:12:16;;;;;;;4.43;2.80;;;2.30;99.90;;;;;;5074714;28;20053;-73
2022/02/05 09:14:46;;;;;;;8.27;4.97;;;2.30;99.90;;;;;;5074496;28;20407;-71
2022/02/05 09:17:12;;;;;;;8.68;5.97;;;3.40;99.90;;;;;;5074344;28;20086;-70
2022/02/05 09:19:40;;;;;;;3.42;2.78;;;3.40;99.90;;;;;;5074442;28;20025;-72
2022/02/05 09:22:06;;;;;;;3.00;2.38;;;3.20;99.90;;;;;;5074254;28;20400;-68
2022/02/05 09:24:34;;;;;;;2.63;1.70;;;2.90;99.90;;;;;;5074362;28;20047;-68
2022/02/05 09:27:03;;;;;;;2.95;1.92;;;2.80;99.90;;;;;;5068058;28;20024;-69
2022/02/05 09:29:32;;;;;;;2.10;1.73;;;2.70;99.90;;;;;;5074087;28;20043;-69
2022/02/05 09:31:58;;;;;;;3.22;2.45;;;2.60;99.90;;;;;;5074102;28;20025;-70
2022/02/05 09:34:24;;;;;;;2.45;1.70;;;2.40;99.90;;;;;;5074136;28;20017;-70
2022/02/05 09:36:50;;;;;;;3.20;1.95;;;2.30;99.90;;;;;;5074312;28;20024;-73
2022/02/05 09:39:16;;;;;;;2.70;1.70;;;2.30;99.90;;;;;;5073781;28;20514;-73
2022/02/05 09:41:44;;;;;;;2.92;1.60;;;2.30;99.90;;;;;;5074074;28;20044;-74
2022/02/05 09:44:10;;;;;;;1.92;1.67;;;2.30;99.90;;;;;;5073877;28;20031;-70
2022/02/05 09:46:36;;;;;;;2.28;1.58;;;2.20;99.90;;;;;;5074046;28;20070;-71
2022/02/05 09:49:03;;;;;;;6.03;2.47;;;2.40;99.90;;;;;;5073785;28;20024;-69
2022/02/05 09:51:34;;;;;;;1.60;1.50;;;2.60;99.90;;;;;;5074119;28;20387;-69
2022/02/05 09:54:03;;;;;;;;;;;2.50;99.90;;;;;;5071765;28;20024;-69
2022/02/05 09:56:31;;;;;;;5.68;2.88;;;2.30;99.90;;;;;;5059083;28;20010;-70
2022/02/05 09:58:58;;;;;;;9.93;3.00;;;2.20;99.90;;;;;;5064166;28;20448;-69
2022/02/05 10:01:28;;;;;;;6.03;3.15;;;2.10;99.90;;;;;;5064081;28;20024;-69
2022/02/05 10:03:55;;;;;;;4.30;1.98;;;2.10;99.90;;;;;;5069453;28;20028;-72
2022/02/05 10:06:32;;;;;;;2.70;1.65;;;2.10;99.90;;;;;;5062370;28;20073;-72
2022/02/05 10:09:12;;;;;;;2.10;1.67;;;2.00;99.90;;;;;;5068296;28;20041;-70
2022/02/05 10:11:47;;;;;;;1.95;1.33;;;1.90;99.90;;;;;;5065074;28;20025;-70
2022/02/05 10:14:15;;;;;;;3.67;2.10;;;1.90;99.90;;;;;;5065465;28;20459;-70
2022/02/05 10:16:41;;;;;;;2.97;1.88;;;1.80;99.90;;;;;;5073282;28;20016;-70
2022/02/05 10:19:07;;;;;;;6.30;3.08;;;1.80;99.90;;;;;;5072986;28;20545;-70
2022/02/05 10:21:33;;;;;;;2.80;2.10;;;1.90;99.90;;;;;;5073092;28;20024;-70
2022/02/05 10:24:10;;;;;;;15.27;7.65;;;1.90;99.90;;;;;;5073153;28;20027;-70
2022/02/05 10:26:46;;;;;;;13.10;6.15;;;1.90;99.90;;;;;;5071661;28;20021;-70
2022/02/05 10:29:20;;;;;;;3.78;2.03;;;1.90;99.90;;;;;;5072934;28;20033;-71
2022/02/05 10:32:13;;;;;;;2.25;1.70;;;1.90;99.90;;;;;;5073067;28;20032;-75
2022/02/05 10:34:55;;;;;;;3.25;2.00;;;1.80;99.90;;;;;;5072922;28;20435;-70
2022/02/05 10:37:26;;;;;;;9.75;3.88;;;1.80;99.90;;;;;;5063235;28;20056;-71
2022/02/05 10:40:15;;;;;;;3.20;2.10;;;1.80;99.90;;;;;;5060492;28;20038;-70
2022/02/05 10:43:03;;;;;;;4.32;2.35;;;1.80;99.90;;;;;;5052715;28;20021;-73
2022/02/05 10:45:40;;;;;;;7.45;3.22;;;1.70;99.90;;;;;;5055473;28;20034;-70
2022/02/05 10:48:07;;;;;;;71.75;27.88;;;2.00;99.90;;;;;;5053049;28;20123;-68
2022/02/05 10:50:34;;;;;;;81.18;32.65;;;1.90;99.90;;;;;;5052198;28;20574;-70
2022/02/05 10:53:26;;;;;;;64.85;28.35;;;1.90;99.90;;;;;;5052128;28;20033;-69
2022/02/05 11:06:00;;;;;;;4.95;2.70;;;1.70;99.90;;;;;;5061516;28;20032;-72
2022/02/05 11:08:27;;;;;;;4.10;1.92;;;1.70;99.90;;;;;;5052683;28;20045;-71
2022/02/05 11:21:26;;;;;;;4.07;2.80;;;2.50;99.90;;;;;;5052041;28;20048;-75
2022/02/05 11:24:05;;;;;;;3.75;2.15;;;2.50;99.90;;;;;;5063335;28;20031;-70
2022/02/05 11:26:32;;;;;;;2.00;1.55;;;3.00;99.90;;;;;;5068938;28;20112;-71
2022/02/05 11:29:01;;;;;;;7.38;1.27;;;2.90;99.90;;;;;;5063469;28;20059;-70
2022/02/05 11:34:36;;;;;;;5.10;2.67;;;3.10;99.90;;;;;;5061054;28;20033;-71
2022/02/05 11:37:10;;;;;;;3.05;1.85;;;2.80;99.90;;;;;;5057170;28;20025;-71
2022/02/05 11:39:47;;;;;;;2.20;1.38;;;2.60;99.90;;;;;;5051955;28;20037;-71
2022/02/05 11:42:34;;;;;;;2.72;1.58;;;2.30;99.90;;;;;;5051854;28;20502;-70
2022/02/05 11:45:20;;;;;;;2.45;1.65;;;2.20;99.90;;;;;;5052021;28;20596;-71
2022/02/05 11:47:45;;;;;;;17.55;9.20;;;2.20;99.90;;;;;;5051642;28;20029;-70
2022/02/05 11:50:12;;;;;;;18.30;9.15;;;2.10;99.90;;;;;;5051596;28;20024;-71
2022/02/05 11:52:39;;;;;;;13.05;6.15;;;2.10;99.90;;;;;;5053794;28;20033;-71
2022/02/05 11:55:28;;;;;;;7.55;3.70;;;1.90;99.90;;;;;;5055615;28;20029;-71
2022/02/05 11:57:58;;;;;;;4.28;2.00;;;1.90;99.90;;;;;;5055812;28;20529;-71
2022/02/05 12:00:42;;;;;;;2.10;1.60;;;1.90;99.90;;;;;;5055775;28;20029;-71
2022/02/05 12:03:29;;;;;;;7.65;3.38;;;1.90;99.90;;;;;;5055697;28;20039;-71
2022/02/05 12:06:00;;;;;;;7.43;3.70;;;1.90;99.90;;;;;;5055992;28;20048;-71
2022/02/05 12:08:28;;;;;;;3.58;1.60;;;1.80;99.90;;;;;;5055601;28;20028;-71
2022/02/05 12:10:57;;;;;;;3.97;1.70;;;1.70;99.90;;;;;;5055579;28;20020;-71
2022/02/05 12:13:33;;;;;;;1.42;1.15;;;1.60;99.90;;;;;;5055515;28;20032;-71
2022/02/05 12:15:59;;;;;;;2.58;1.60;;;1.60;99.90;;;;;;5055336;28;20051;-71
2022/02/05 12:18:28;;;;;;;2.78;1.45;;;1.50;99.90;;;;;;5055354;28;20519;-71
2022/02/05 12:20:56;;;;;;;3.60;1.90;;;1.50;99.90;;;;;;5055710;28;20100;-71
2022/02/05 12:23:31;;;;;;;4.65;2.47;;;1.50;99.90;;;;;;5055509;28;20052;-71
2022/02/05 12:25:57;;;;;;;2.65;1.88;;;1.40;99.90;;;;;;5055498;28;20021;-71
2022/02/05 12:28:29;;;;;;;2.22;1.50;;;1.30;99.90;;;;;;5053897;28;20043;-71
2022/02/05 12:30:55;;;;;;;5.93;2.28;;;1.30;99.90;;;;;;5055308;28;20025;-70
2022/02/05 12:33:21;;;;;;;5.40;2.20;;;1.30;99.90;;;;;;5068423;28;20029;-72
2022/02/05 12:35:52;;;;;;;2.40;1.42;;;1.20;99.90;;;;;;5075264;28;20025;-74
2022/02/05 12:38:19;;;;;;;14.98;4.18;;;1.80;99.90;;;;;;5074755;28;20518;-71
2022/02/05 12:40:50;;;;;;;7.68;3.65;;;3.70;99.90;;;;;;5075086;28;20021;-71
2022/02/05 12:43:19;;;;;;;6.90;2.45;;;3.10;99.90;;;;;;5074901;28;20547;-71
2022/02/05 12:45:58;;;;;;;4.22;1.83;;;2.80;99.90;;;;;;5074962;28;20024;-70
2022/02/05 12:48:27;;;;;;;2.10;1.13;;;2.50;99.90;;;;;;5074719;28;20509;-70
2022/02/05 12:50:57;;;;;;;1.20;1.10;;;2.20;99.90;;;;;;5074875;28;20024;-70
2022/02/05 12:53:30;;;;;;;2.78;1.50;;;1.90;99.90;;;;;;5074681;28;20538;-70
2022/02/05 12:56:32;;;;;;;6.45;2.40;;;1.80;99.90;;;;;;5074767;28;20109;-70
2022/02/05 12:59:03;;;;;;;4.32;2.17;;;1.60;99.90;;;;;;5074689;28;20133;-70
2022/02/05 13:01:36;;;;;;;5.15;2.10;;;1.50;99.90;;;;;;5074701;28;20116;-70
2022/02/05 13:04:25;;;;;;;2.63;1.83;;;1.40;99.90;;;;;;5074196;28;20027;-70
2022/02/05 13:07:06;;;;;;;5.75;3.25;;;1.40;99.90;;;;;;5074567;28;20138;-70
2022/02/05 13:09:37;;;;;;;2.92;1.80;;;1.30;99.90;;;;;;5074602;28;20020;-70
2022/02/05 13:12:06;;;;;;;6.35;2.80;;;1.20;99.90;;;;;;5074400;28;20024;-70
2022/02/05 13:14:47;;;;;;;5.22;2.40;;;1.10;99.90;;;;;;5074503;28;20502;-70
2022/02/05 13:24:46;;;;;;;5.40;2.08;;;1.00;99.90;;;;;;5074559;28;20029;-75
2022/02/05 13:34:15;;;;;;;2.08;1.35;;;3.50;99.90;;;;;;5054337;28;20078;-70
2022/02/05 13:37:16;;;;;;;2.22;1.40;;;2.70;99.90;;;;;;5053895;28;20082;-70
2022/02/05 13:42:09;;;;;;;3.22;1.35;;;2.00;99.90;;;;;;5053922;28;20017;-70
2022/02/05 13:44:54;;;;;;;1.48;1.33;;;1.70;99.90;;;;;;5053949;28;20388;-70
2022/02/05 13:47:25;;;;;;;2.28;1.20;;;1.60;99.90;;;;;;5053756;28;20032;-70
2022/02/05 13:50:02;;;;;;;1.48;1.10;;;1.60;99.90;;;;;;5053861;28;20384;-70
2022/02/05 13:52:37;;;;;;;1.48;1.30;;;1.40;99.90;;;;;;5054068;28;20017;-70
2022/02/05 13:55:17;;;;;;;3.40;1.65;;;1.30;99.90;;;;;;5053884;28;20078;-70
2022/02/05 13:57:52;;;;;;;3.10;1.70;;;1.20;99.90;;;;;;5054055;28;20036;-70
2022/02/05 14:00:18;;;;;;;2.28;1.38;;;1.10;99.90;;;;;;5053800;28;20082;-70
2022/02/05 14:02:44;;;;;;;2.20;1.30;;;2.70;99.90;;;;;;5053772;28;20112;-69
2022/02/05 14:05:12;;;;;;;1.13;1.00;;;3.50;99.90;;;;;;5053554;28;20053;-71
2022/02/05 14:07:45;;;;;;;1.52;1.00;;;2.90;99.90;;;;;;5053802;28;20029;-70
2022/02/05 14:10:16;;;;;;;1.90;1.27;;;2.20;99.90;;;;;;5053394;28;20025;-70
2022/02/05 14:12:55;;;;;;;2.80;1.42;;;1.70;99.90;;;;;;5053448;28;20515;-70
2022/02/05 14:15:22;;;;;;;1.80;1.23;;;1.40;99.90;;;;;;5052270;28;20090;-70
2022/02/05 14:18:13;;;;;;;2.65;1.10;;;1.20;99.90;;;;;;5053219;28;20060;-70
2022/02/05 14:20:52;;;;;;;1.98;1.10;;;1.00;99.90;;;;;;5053519;28;20029;-70
2022/02/05 14:23:21;;;;;;;2.63;1.20;;;0.90;99.90;;;;;;5053138;28;20021;-70
2022/02/05 14:25:49;;;;;;;1.42;1.20;;;0.90;99.90;;;;;;5053001;28;20068;-69
2022/02/05 14:28:17;;;;;;;2.53;1.20;;;1.00;99.90;;;;;;5060526;28;20391;-69
2022/02/05 14:31:32;;;;;;;4.72;1.10;;;1.00;99.90;;;;;;5068595;28;20028;-70
2022/02/05 14:34:27;;;;;;;1.92;1.10;;;0.90;99.90;;;;;;5061970;28;20059;-70
2022/02/05 14:41:48;;;;;;;2.15;1.55;;;0.60;99.90;;;;;;5073004;28;20430;-69
2022/02/05 14:44:15;;;;;;;2.25;1.33;;;0.60;99.90;;;;;;5072635;28;20021;-70
2022/02/05 14:46:41;;;;;;;4.30;1.73;;;0.60;99.90;;;;;;5072820;28;20151;-70
2022/02/05 14:49:08;;;;;;;2.47;1.55;;;0.50;99.90;;;;;;5072817;28;20028;-70
2022/02/05 14:51:34;;;;;;;1.50;1.13;;;0.40;99.90;;;;;;5072635;28;20092;-69
2022/02/05 14:54:00;;;;;;;2.97;1.30;;;0.30;99.90;;;;;;5072619;28;20170;-69
2022/02/05 14:56:26;;;;;;;2.65;1.35;;;0.20;99.90;;;;;;5072575;28;20104;-69
2022/02/05 14:58:52;;;;;;;2.40;1.40;;;0.20;99.90;;;;;;5072624;28;20028;-69
2022/02/05 15:01:21;;;;;;;1.73;1.25;;;0.20;99.90;;;;;;5072306;28;20146;-69
2022/02/05 15:03:51;;;;;;;3.42;1.30;;;0.20;99.90;;;;;;5072454;28;20031;-69
2022/02/05 15:06:19;;;;;;;1.17;1.02;;;0.10;99.90;;;;;;5072185;28;20024;-69
2022/02/05 15:08:46;;;;;;;2.05;1.42;;;0.00;99.90;;;;;;5072297;28;20033;-69
2022/02/05 15:11:13;;;;;;;3.30;1.48;;;0.00;99.90;;;;;;5072202;28;20051;-69
2022/02/05 15:13:40;;;;;;;5.05;1.60;;;0.00;99.90;;;;;;5072279;28;20024;-69
2022/02/05 15:16:06;;;;;;;2.80;1.48;;;-0.10;99.90;;;;;;5072178;28;20488;-67
2022/02/05 15:18:31;;;;;;;2.53;1.83;;;-0.10;99.90;;;;;;5068716;28;20086;-72
2022/02/05 15:20:57;;;;;;;4.05;1.50;;;0.00;99.90;;;;;;5069291;28;20020;-68
2022/02/05 15:23:23;;;;;;;3.58;1.20;;;-0.10;99.90;;;;;;5070304;28;20108;-69
2022/02/05 15:25:50;;;;;;;2.78;1.48;;;-0.30;99.90;;;;;;5061254;28;20464;-69
2022/02/05 15:28:16;;;;;;;2.15;1.50;;;-0.40;99.90;;;;;;5060318;28;20094;-70
2022/02/05 15:30:41;;;;;;;2.58;1.45;;;-0.50;99.90;;;;;;5063670;28;20024;-68
2022/02/05 15:33:07;;;;;;;4.38;1.40;;;-0.50;99.90;;;;;;5065437;28;20037;-69
2022/02/05 15:35:34;;;;;;;1.35;1.25;;;-0.50;99.90;;;;;;5071255;28;20032;-70
2022/02/05 15:38:25;;;;;;;2.75;1.30;;;-0.50;99.90;;;;;;5071916;28;20051;-69
2022/02/05 15:43:52;;;;;;;1.98;1.30;;;-0.40;99.90;;;;;;5071049;28;20040;-68
2022/02/05 15:46:18;;;;;;;2.42;1.23;;;-0.40;99.90;;;;;;5070880;28;20086;-67
2022/02/05 15:48:45;;;;;;;2.75;1.50;;;-0.50;99.90;;;;;;5068072;28;20037;-69
2022/02/05 15:51:11;;;;;;;2.30;1.38;;;-0.50;99.90;;;;;;5070629;28;20493;-69
2022/02/05 15:53:44;;;;;;;4.00;1.50;;;-0.50;99.90;;;;;;5071384;28;20032;-67
2022/02/05 15:56:22;;;;;;;2.08;1.48;;;-0.50;99.90;;;;;;5071472;28;20020;-69
2022/02/05 15:58:49;;;;;;;1.67;1.40;;;-0.60;99.90;;;;;;5067118;28;20040;-68
2022/02/05 16:01:15;;;;;;;2.17;1.63;;;-0.80;99.90;;;;;;5066592;28;20399;-68
2022/02/05 16:03:42;;;;;;;3.28;1.55;;;-0.90;99.90;;;;;;5067589;28;20028;-68
2022/02/05 16:06:08;;;;;;;2.03;1.35;;;-0.90;99.90;;;;;;5071501;28;20107;-68
2022/02/05 16:08:34;;;;;;;1.55;1.40;;;-0.90;99.90;;;;;;5071337;28;20111;-73
2022/02/05 16:10:59;;;;;;;4.05;2.90;;;-0.90;99.90;;;;;;5071140;28;20027;-69
2022/02/05 16:13:26;;;;;;;2.47;1.77;;;-0.90;99.90;;;;;;5071061;28;20024;-69
2022/02/05 16:15:52;;;;;;;2.83;1.55;;;-0.90;99.90;;;;;;5071425;28;20029;-70
2022/02/05 16:18:18;;;;;;;2.20;1.50;;;-0.90;99.90;;;;;;5070886;28;20013;-70
2022/02/05 16:20:44;;;;;;;3.65;2.38;;;-0.90;99.90;;;;;;5071038;28;20024;-70
2022/02/05 16:23:10;;;;;;;2.70;2.30;;;-0.90;99.90;;;;;;5071055;28;20379;-70
2022/02/05 16:25:36;;;;;;;3.00;1.85;;;-1.00;99.90;;;;;;5068496;28;20056;-70
2022/02/05 16:28:02;;;;;;;2.78;1.80;;;-1.10;99.90;;;;;;5062725;28;20062;-70
2022/02/05 16:30:29;;;;;;;4.43;1.80;;;-1.30;99.90;;;;;;5068607;28;20074;-70
2022/02/05 16:32:57;;;;;;;2.30;1.60;;;-1.30;99.90;;;;;;5068621;28;20017;-70
2022/02/05 16:35:29;;;;;;;2.83;1.80;;;-1.30;99.90;;;;;;5064885;28;20267;-70
2022/02/05 16:37:59;;;;;;;2.15;1.65;;;-1.30;99.90;;;;;;5067157;28;20040;-70
2022/02/05 16:40:29;;;;;;;1.80;1.45;;;-1.50;99.90;;;;;;5071450;28;20052;-71
2022/02/05 16:42:55;;;;;;;4.97;1.63;;;-1.50;99.90;;;;;;5075039;28;20099;-72
2022/02/05 16:45:23;;;;;;;1.15;1.10;;;-1.60;99.90;;;;;;5068342;28;20020;-73
2022/02/05 16:47:50;;;;;;;1.65;1.33;;;-1.70;99.90;;;;;;5062646;28;20399;-69
2022/02/05 16:50:18;;;;;;;1.52;1.30;;;-1.70;99.90;;;;;;5054996;28;20021;-69
2022/02/05 16:52:49;;;;;;;3.03;1.98;;;-1.70;99.90;;;;;;5054951;28;20078;-69
2022/02/05 16:55:16;;;;;;;4.53;2.08;;;-1.80;99.90;;;;;;5054968;28;20067;-71
2022/02/05 16:57:43;;;;;;;1.67;1.23;;;-1.90;99.90;;;;;;5054860;28;20384;-68
2022/02/05 17:00:09;;;;;;;1.77;1.00;;;-1.80;99.90;;;;;;5055210;28;20032;-68
2022/02/05 17:02:35;;;;;;;1.35;1.10;;;-1.80;99.90;;;;;;5054788;28;20029;-68
2022/02/05 17:05:01;;;;;;;3.22;1.67;;;-1.80;99.90;;;;;;5054847;28;20029;-68
2022/02/05 17:07:28;;;;;;;3.03;1.52;;;-1.80;99.90;;;;;;5054361;28;20036;-69
2022/02/05 17:09:55;;;;;;;3.28;1.80;;;-1.90;99.90;;;;;;5054739;28;20021;-70
2022/02/05 17:12:21;;;;;;;3.85;1.65;;;-2.00;99.90;;;;;;5054481;28;20477;-70
2022/02/05 17:14:55;;;;;;;3.92;1.58;;;-2.00;99.90;;;;;;5053183;28;20417;-70